sensor_id;sensor_type;location;lat;lon;timestamp;temperature;humidity
52451;DHT22;38366;53.176;6.540;2022-07-23T00:00:56;15.40;99.90
52451;DHT22;38366;53.176;6.540;2022-07-23T00:03:21;15.40;99.90
52451;DHT22;38366;53.176;6.540;2022-07-23T00:05:47;15.50;99.90
52451;DHT22;38366;53.176;6.540;2022-07-23T00:08:13;15.50;99.90
52451;DHT22;38366;53.176;6.540;2022-07-23T00:10:38;15.50;99.90
52451;DHT22;38366;53.176;6.540;2022-07-23T00:13:04;15.40;99.90
52451;DHT22;38366;53.176;6.540;2022-07-23T00:15:30;15.40;99.90
52451;DHT22;38366;53.176;6.540;2022-07-23T00:17:55;15.40;99.90
52451;DHT22;38366;53.176;6.540;2022-07-23T00:20:21;15.30;99.90
52451;DHT22;38366;53.176;6.540;2022-07-23T00:22:51;15.20;99.90
52451;DHT22;38366;53.176;6.540;2022-07-23T00:25:18;15.20;99.90
52451;DHT22;38366;53.176;6.540;2022-07-23T00:27:44;15.20;99.90
52451;DHT22;38366;53.176;6.540;2022-07-23T00:30:10;15.20;99.90
52451;DHT22;38366;53.176;6.540;2022-07-23T00:32:50;15.20;99.90
52451;DHT22;38366;53.176;6.540;2022-07-23T00:35:20;15.20;99.90
52451;DHT22;38366;53.176;6.540;2022-07-23T00:37:46;15.20;99.90
52451;DHT22;38366;53.176;6.540;2022-07-23T00:40:12;15.20;99.90
52451;DHT22;38366;53.176;6.540;2022-07-23T00:42:38;15.20;99.90
52451;DHT22;38366;53.176;6.540;2022-07-23T00:45:05;15.20;99.90
52451;DHT22;38366;53.176;6.540;2022-07-23T00:47:31;15.20;99.90
52451;DHT22;38366;53.176;6.540;2022-07-23T00:49:57;15.20;99.90
52451;DHT22;38366;53.176;6.540;2022-07-23T00:52:23;15.10;99.90
52451;DHT22;38366;53.176;6.540;2022-07-23T00:54:49;15.10;99.90
52451;DHT22;38366;53.176;6.540;2022-07-23T00:57:15;15.10;99.90
52451;DHT22;38366;53.176;6.540;2022-07-23T00:59:41;15.10;99.90
52451;DHT22;38366;53.176;6.540;2022-07-23T01:02:07;15.20;99.90
52451;DHT22;38366;53.176;6.540;2022-07-23T01:04:33;15.10;99.90
52451;DHT22;38366;53.176;6.540;2022-07-23T01:06:59;15.10;99.90
52451;DHT22;38366;53.176;6.540;2022-07-23T01:09:25;15.10;99.90
52451;DHT22;38366;53.176;6.540;2022-07-23T01:11:51;15.10;99.90
52451;DHT22;38366;53.176;6.540;2022-07-23T01:14:19;15.00;99.90
52451;DHT22;38366;53.176;6.540;2022-07-23T01:16:46;15.00;99.90
52451;DHT22;38366;53.176;6.540;2022-07-23T01:19:13;15.00;99.90
52451;DHT22;38366;53.176;6.540;2022-07-23T01:21:46;15.00;99.90
52451;DHT22;38366;53.176;6.540;2022-07-23T01:24:12;15.00;99.90
52451;DHT22;38366;53.176;6.540;2022-07-23T01:26:39;14.90;99.90
52451;DHT22;38366;53.176;6.540;2022-07-23T01:29:05;14.90;99.90
52451;DHT22;38366;53.176;6.540;2022-07-23T01:31:31;14.80;99.90
52451;DHT22;38366;53.176;6.540;2022-07-23T01:33:57;14.80;99.90
52451;DHT22;38366;53.176;6.540;2022-07-23T01:36:23;14.80;99.90
52451;DHT22;38366;53.176;6.540;2022-07-23T01:38:49;14.80;99.90
52451;DHT22;38366;53.176;6.540;2022-07-23T01:41:15;14.80;99.90
52451;DHT22;38366;53.176;6.540;2022-07-23T01:43:40;14.70;99.90
52451;DHT22;38366;53.176;6.540;2022-07-23T01:46:06;14.70;99.90
52451;DHT22;38366;53.176;6.540;2022-07-23T01:48:32;14.60;99.90
52451;DHT22;38366;53.176;6.540;2022-07-23T01:50:57;14.50;99.90
52451;DHT22;38366;53.176;6.540;2022-07-23T01:53:23;14.50;99.90
52451;DHT22;38366;53.176;6.540;2022-07-23T01:55:49;14.40;99.90
52451;DHT22;38366;53.176;6.540;2022-07-23T01:58:15;14.40;99.90
52451;DHT22;38366;53.176;6.540;2022-07-23T02:00:41;14.30;99.90
52451;DHT22;38366;53.176;6.540;2022-07-23T02:03:06;14.20;99.90
52451;DHT22;38366;53.176;6.540;2022-07-23T02:05:32;14.20;99.90
52451;DHT22;38366;53.176;6.540;2022-07-23T02:07:59;14.10;99.90
52451;DHT22;38366;53.176;6.540;2022-07-23T02:10:25;14.00;99.90
52451;DHT22;38366;53.176;6.540;2022-07-23T02:12:51;13.90;99.90
52451;DHT22;38366;53.176;6.540;2022-07-23T02:15:17;13.90;99.90
52451;DHT22;38366;53.176;6.540;2022-07-23T02:17:42;13.80;99.90
52451;DHT22;38366;53.176;6.540;2022-07-23T02:20:10;13.80;99.90
52451;DHT22;38366;53.176;6.540;2022-07-23T02:22:36;13.80;99.90
52451;DHT22;38366;53.176;6.540;2022-07-23T02:25:05;13.80;99.90
52451;DHT22;38366;53.176;6.540;2022-07-23T02:27:31;13.70;99.90
52451;DHT22;38366;53.176;6.540;2022-07-23T02:29:57;13.70;99.90
52451;DHT22;38366;53.176;6.540;2022-07-23T02:32:23;13.70;99.90
52451;DHT22;38366;53.176;6.540;2022-07-23T02:34:50;13.70;99.90
52451;DHT22;38366;53.176;6.540;2022-07-23T02:37:16;13.70;99.90
52451;DHT22;38366;53.176;6.540;2022-07-23T02:39:42;13.70;99.90
52451;DHT22;38366;53.176;6.540;2022-07-23T02:42:08;13.70;99.90
52451;DHT22;38366;53.176;6.540;2022-07-23T02:44:33;13.70;99.90
52451;DHT22;38366;53.176;6.540;2022-07-23T02:46:59;13.70;99.90
52451;DHT22;38366;53.176;6.540;2022-07-23T02:49:25;13.70;99.90
52451;DHT22;38366;53.176;6.540;2022-07-23T02:51:51;13.70;99.90
52451;DHT22;38366;53.176;6.540;2022-07-23T02:54:17;13.80;99.90
52451;DHT22;38366;53.176;6.540;2022-07-23T02:56:43;13.80;99.90
52451;DHT22;38366;53.176;6.540;2022-07-23T02:59:08;13.80;99.90
52451;DHT22;38366;53.176;6.540;2022-07-23T03:01:34;13.80;99.90
52451;DHT22;38366;53.176;6.540;2022-07-23T03:04:00;13.80;99.90
52451;DHT22;38366;53.176;6.540;2022-07-23T03:06:26;13.80;99.90
52451;DHT22;38366;53.176;6.540;2022-07-23T03:08:52;13.80;99.90
52451;DHT22;38366;53.176;6.540;2022-07-23T03:11:17;13.70;99.90
52451;DHT22;38366;53.176;6.540;2022-07-23T03:13:43;13.70;99.90
52451;DHT22;38366;53.176;6.540;2022-07-23T03:16:09;13.70;99.90
52451;DHT22;38366;53.176;6.540;2022-07-23T03:18:35;13.70;99.90
52451;DHT22;38366;53.176;6.540;2022-07-23T03:21:01;13.70;99.90
52451;DHT22;38366;53.176;6.540;2022-07-23T03:23:27;13.70;99.90
52451;DHT22;38366;53.176;6.540;2022-07-23T03:25:52;13.70;99.90
52451;DHT22;38366;53.176;6.540;2022-07-23T03:28:18;13.70;99.90
52451;DHT22;38366;53.176;6.540;2022-07-23T03:30:47;13.60;99.90
52451;DHT22;38366;53.176;6.540;2022-07-23T03:33:18;13.60;99.90
52451;DHT22;38366;53.176;6.540;2022-07-23T03:35:45;13.60;99.90
52451;DHT22;38366;53.176;6.540;2022-07-23T03:38:11;13.60;99.90
52451;DHT22;38366;53.176;6.540;2022-07-23T03:40:37;13.50;99.90
52451;DHT22;38366;53.176;6.540;2022-07-23T03:43:03;13.50;99.90
52451;DHT22;38366;53.176;6.540;2022-07-23T03:45:29;13.40;99.90
52451;DHT22;38366;53.176;6.540;2022-07-23T03:47:55;13.50;99.90
52451;DHT22;38366;53.176;6.540;2022-07-23T03:50:21;13.50;99.90
52451;DHT22;38366;53.176;6.540;2022-07-23T03:52:47;13.50;99.90
52451;DHT22;38366;53.176;6.540;2022-07-23T03:55:12;13.50;99.90
52451;DHT22;38366;53.176;6.540;2022-07-23T03:57:38;13.40;99.90
52451;DHT22;38366;53.176;6.540;2022-07-23T04:00:05;13.40;99.90
52451;DHT22;38366;53.176;6.540;2022-07-23T04:02:32;13.40;99.90
52451;DHT22;38366;53.176;6.540;2022-07-23T04:04:58;13.40;99.90
52451;DHT22;38366;53.176;6.540;2022-07-23T04:07:24;13.40;99.90
52451;DHT22;38366;53.176;6.540;2022-07-23T04:09:50;13.40;99.90
52451;DHT22;38366;53.176;6.540;2022-07-23T04:12:16;13.50;99.90
52451;DHT22;38366;53.176;6.540;2022-07-23T04:14:42;13.50;99.90
52451;DHT22;38366;53.176;6.540;2022-07-23T04:17:08;13.50;99.90
52451;DHT22;38366;53.176;6.540;2022-07-23T04:19:33;13.50;99.90
52451;DHT22;38366;53.176;6.540;2022-07-23T04:22:01;13.50;99.90
52451;DHT22;38366;53.176;6.540;2022-07-23T04:24:26;13.60;99.90
52451;DHT22;38366;53.176;6.540;2022-07-23T04:26:52;13.60;99.90
52451;DHT22;38366;53.176;6.540;2022-07-23T04:29:18;13.60;99.90
52451;DHT22;38366;53.176;6.540;2022-07-23T04:31:44;13.60;99.90
52451;DHT22;38366;53.176;6.540;2022-07-23T04:34:09;13.60;99.90
52451;DHT22;38366;53.176;6.540;2022-07-23T04:36:35;13.60;99.90
52451;DHT22;38366;53.176;6.540;2022-07-23T04:39:01;13.60;99.90
52451;DHT22;38366;53.176;6.540;2022-07-23T04:41:26;13.70;99.90
52451;DHT22;38366;53.176;6.540;2022-07-23T04:43:52;13.70;99.90
52451;DHT22;38366;53.176;6.540;2022-07-23T04:46:18;13.70;99.90
52451;DHT22;38366;53.176;6.540;2022-07-23T04:48:43;13.70;99.90
52451;DHT22;38366;53.176;6.540;2022-07-23T04:51:09;13.80;99.90
52451;DHT22;38366;53.176;6.540;2022-07-23T04:53:37;13.80;99.90
52451;DHT22;38366;53.176;6.540;2022-07-23T04:56:03;13.80;99.90
52451;DHT22;38366;53.176;6.540;2022-07-23T04:58:29;13.90;99.90
52451;DHT22;38366;53.176;6.540;2022-07-23T05:00:57;13.90;99.90
52451;DHT22;38366;53.176;6.540;2022-07-23T05:03:23;14.00;99.90
52451;DHT22;38366;53.176;6.540;2022-07-23T05:05:49;14.00;99.90
52451;DHT22;38366;53.176;6.540;2022-07-23T05:08:15;14.00;99.90
52451;DHT22;38366;53.176;6.540;2022-07-23T05:10:41;14.10;99.90
52451;DHT22;38366;53.176;6.540;2022-07-23T05:13:07;14.20;99.90
52451;DHT22;38366;53.176;6.540;2022-07-23T05:15:32;14.30;99.90
52451;DHT22;38366;53.176;6.540;2022-07-23T05:17:58;14.40;99.90
52451;DHT22;38366;53.176;6.540;2022-07-23T05:20:24;14.50;99.90
52451;DHT22;38366;53.176;6.540;2022-07-23T05:22:50;14.60;99.90
52451;DHT22;38366;53.176;6.540;2022-07-23T05:25:16;14.70;99.90
52451;DHT22;38366;53.176;6.540;2022-07-23T05:27:42;14.80;99.90
52451;DHT22;38366;53.176;6.540;2022-07-23T05:30:08;14.90;99.90
52451;DHT22;38366;53.176;6.540;2022-07-23T05:32:33;14.90;99.90
52451;DHT22;38366;53.176;6.540;2022-07-23T05:34:59;15.00;99.90
52451;DHT22;38366;53.176;6.540;2022-07-23T05:37:25;15.00;99.90
52451;DHT22;38366;53.176;6.540;2022-07-23T05:39:50;15.10;99.90
52451;DHT22;38366;53.176;6.540;2022-07-23T05:42:16;15.20;99.90
52451;DHT22;38366;53.176;6.540;2022-07-23T05:44:42;15.20;99.90
52451;DHT22;38366;53.176;6.540;2022-07-23T05:47:07;15.30;99.90
52451;DHT22;38366;53.176;6.540;2022-07-23T05:49:33;15.50;99.90
52451;DHT22;38366;53.176;6.540;2022-07-23T05:52:02;15.60;99.90
52451;DHT22;38366;53.176;6.540;2022-07-23T05:54:28;15.80;99.90
52451;DHT22;38366;53.176;6.540;2022-07-23T05:56:54;16.00;99.90
52451;DHT22;38366;53.176;6.540;2022-07-23T05:59:19;16.20;99.90
52451;DHT22;38366;53.176;6.540;2022-07-23T06:01:45;16.10;99.90
52451;DHT22;38366;53.176;6.540;2022-07-23T06:04:11;16.10;99.90
52451;DHT22;38366;53.176;6.540;2022-07-23T06:06:36;16.00;99.90
52451;DHT22;38366;53.176;6.540;2022-07-23T06:09:02;16.00;99.90
52451;DHT22;38366;53.176;6.540;2022-07-23T06:11:28;15.90;99.90
52451;DHT22;38366;53.176;6.540;2022-07-23T06:13:54;16.00;99.90
52451;DHT22;38366;53.176;6.540;2022-07-23T06:16:19;16.00;99.90
52451;DHT22;38366;53.176;6.540;2022-07-23T06:18:45;16.10;99.90
52451;DHT22;38366;53.176;6.540;2022-07-23T06:21:10;16.10;99.90
52451;DHT22;38366;53.176;6.540;2022-07-23T06:23:36;16.20;99.90
52451;DHT22;38366;53.176;6.540;2022-07-23T06:26:02;16.30;99.90
52451;DHT22;38366;53.176;6.540;2022-07-23T06:28:27;16.40;99.90
52451;DHT22;38366;53.176;6.540;2022-07-23T06:30:53;16.50;99.90
52451;DHT22;38366;53.176;6.540;2022-07-23T06:33:19;16.50;99.90
52451;DHT22;38366;53.176;6.540;2022-07-23T06:35:45;16.60;99.90
52451;DHT22;38366;53.176;6.540;2022-07-23T06:38:10;16.60;99.90
52451;DHT22;38366;53.176;6.540;2022-07-23T06:40:36;16.70;99.90
52451;DHT22;38366;53.176;6.540;2022-07-23T06:43:01;16.70;99.90
52451;DHT22;38366;53.176;6.540;2022-07-23T06:45:27;16.90;99.90
52451;DHT22;38366;53.176;6.540;2022-07-23T06:47:53;17.20;99.90
52451;DHT22;38366;53.176;6.540;2022-07-23T06:50:19;17.40;99.90
52451;DHT22;38366;53.176;6.540;2022-07-23T06:52:44;17.80;99.90
52451;DHT22;38366;53.176;6.540;2022-07-23T06:55:10;18.50;99.90
52451;DHT22;38366;53.176;6.540;2022-07-23T06:57:36;19.10;99.90
52451;DHT22;38366;53.176;6.540;2022-07-23T07:00:03;19.60;99.90
52451;DHT22;38366;53.176;6.540;2022-07-23T07:02:29;20.20;99.90
52451;DHT22;38366;53.176;6.540;2022-07-23T07:04:54;20.50;99.90
52451;DHT22;38366;53.176;6.540;2022-07-23T07:07:21;20.60;99.90
52451;DHT22;38366;53.176;6.540;2022-07-23T07:09:47;20.50;99.90
52451;DHT22;38366;53.176;6.540;2022-07-23T07:12:12;20.40;99.90
52451;DHT22;38366;53.176;6.540;2022-07-23T07:14:38;20.30;99.90
52451;DHT22;38366;53.176;6.540;2022-07-23T07:17:04;20.30;99.90
52451;DHT22;38366;53.176;6.540;2022-07-23T07:19:30;20.50;99.90
52451;DHT22;38366;53.176;6.540;2022-07-23T07:21:55;20.90;99.90
52451;DHT22;38366;53.176;6.540;2022-07-23T07:24:21;21.00;99.90
52451;DHT22;38366;53.176;6.540;2022-07-23T07:26:47;20.60;99.90
52451;DHT22;38366;53.176;6.540;2022-07-23T07:29:12;20.20;99.90
52451;DHT22;38366;53.176;6.540;2022-07-23T07:31:38;20.00;99.90
52451;DHT22;38366;53.176;6.540;2022-07-23T07:34:04;19.90;99.90
52451;DHT22;38366;53.176;6.540;2022-07-23T07:36:30;20.50;99.90
52451;DHT22;38366;53.176;6.540;2022-07-23T07:38:55;21.00;99.90
52451;DHT22;38366;53.176;6.540;2022-07-23T07:41:21;21.30;99.90
52451;DHT22;38366;53.176;6.540;2022-07-23T07:43:51;21.00;99.90
52451;DHT22;38366;53.176;6.540;2022-07-23T07:46:17;20.60;99.90
52451;DHT22;38366;53.176;6.540;2022-07-23T07:48:43;20.30;99.90
52451;DHT22;38366;53.176;6.540;2022-07-23T07:51:08;19.90;99.90
52451;DHT22;38366;53.176;6.540;2022-07-23T07:53:34;20.00;99.90
52451;DHT22;38366;53.176;6.540;2022-07-23T07:56:00;20.30;99.90
52451;DHT22;38366;53.176;6.540;2022-07-23T07:58:26;20.50;99.90
52451;DHT22;38366;53.176;6.540;2022-07-23T08:00:51;20.40;99.90
52451;DHT22;38366;53.176;6.540;2022-07-23T08:03:17;20.30;99.90
52451;DHT22;38366;53.176;6.540;2022-07-23T08:05:43;20.30;99.90
52451;DHT22;38366;53.176;6.540;2022-07-23T08:08:09;20.20;99.90
52451;DHT22;38366;53.176;6.540;2022-07-23T08:10:40;20.10;99.90
52451;DHT22;38366;53.176;6.540;2022-07-23T08:13:06;20.00;99.90
52451;DHT22;38366;53.176;6.540;2022-07-23T08:15:32;20.30;99.90
52451;DHT22;38366;53.176;6.540;2022-07-23T08:17:58;20.90;99.90
52451;DHT22;38366;53.176;6.540;2022-07-23T08:20:25;21.60;99.90
52451;DHT22;38366;53.176;6.540;2022-07-23T08:22:54;22.20;99.90
52451;DHT22;38366;53.176;6.540;2022-07-23T08:25:28;22.60;99.90
52451;DHT22;38366;53.176;6.540;2022-07-23T08:27:55;22.70;99.90
52451;DHT22;38366;53.176;6.540;2022-07-23T08:30:21;22.90;99.90
52451;DHT22;38366;53.176;6.540;2022-07-23T08:35:28;22.40;99.90
52451;DHT22;38366;53.176;6.540;2022-07-23T08:37:55;22.50;99.90
52451;DHT22;38366;53.176;6.540;2022-07-23T08:40:22;23.00;99.90
52451;DHT22;38366;53.176;6.540;2022-07-23T08:42:49;23.10;99.80
52451;DHT22;38366;53.176;6.540;2022-07-23T08:45:20;22.90;99.90
52451;DHT22;38366;53.176;6.540;2022-07-23T08:47:57;22.60;99.90
52451;DHT22;38366;53.176;6.540;2022-07-23T08:50:25;22.30;99.90
52451;DHT22;38366;53.176;6.540;2022-07-23T08:52:53;22.20;99.90
52451;DHT22;38366;53.176;6.540;2022-07-23T08:55:20;22.20;99.90
52451;DHT22;38366;53.176;6.540;2022-07-23T08:57:49;22.50;99.90
52451;DHT22;38366;53.176;6.540;2022-07-23T09:00:16;22.90;99.90
52451;DHT22;38366;53.176;6.540;2022-07-23T09:02:44;22.90;99.30
52451;DHT22;38366;53.176;6.540;2022-07-23T09:05:11;23.20;99.90
52451;DHT22;38366;53.176;6.540;2022-07-23T09:07:38;23.10;99.80
52451;DHT22;38366;53.176;6.540;2022-07-23T09:10:09;23.20;99.90
52451;DHT22;38366;53.176;6.540;2022-07-23T09:12:35;22.90;99.90
52451;DHT22;38366;53.176;6.540;2022-07-23T09:15:07;22.80;99.90
52451;DHT22;38366;53.176;6.540;2022-07-23T09:17:42;22.60;99.90
52451;DHT22;38366;53.176;6.540;2022-07-23T09:20:09;22.50;99.90
52451;DHT22;38366;53.176;6.540;2022-07-23T09:22:35;22.40;99.90
52451;DHT22;38366;53.176;6.540;2022-07-23T09:30:16;22.40;99.90
52451;DHT22;38366;53.176;6.540;2022-07-23T09:32:42;22.20;99.90
52451;DHT22;38366;53.176;6.540;2022-07-23T09:35:08;22.00;99.90
52451;DHT22;38366;53.176;6.540;2022-07-23T09:37:34;22.00;99.90
52451;DHT22;38366;53.176;6.540;2022-07-23T09:40:08;22.10;99.90
52451;DHT22;38366;53.176;6.540;2022-07-23T09:42:35;22.00;99.90
52451;DHT22;38366;53.176;6.540;2022-07-23T09:45:00;22.10;99.90
52451;DHT22;38366;53.176;6.540;2022-07-23T09:47:31;22.20;99.90
52451;DHT22;38366;53.176;6.540;2022-07-23T09:50:03;22.30;99.90
52451;DHT22;38366;53.176;6.540;2022-07-23T09:52:35;22.20;99.90
52451;DHT22;38366;53.176;6.540;2022-07-23T09:55:06;22.30;99.90
52451;DHT22;38366;53.176;6.540;2022-07-23T09:57:32;22.40;99.90
52451;DHT22;38366;53.176;6.540;2022-07-23T10:00:00;22.40;99.90
52451;DHT22;38366;53.176;6.540;2022-07-23T10:02:28;22.50;99.90
52451;DHT22;38366;53.176;6.540;2022-07-23T10:04:56;22.50;99.90
52451;DHT22;38366;53.176;6.540;2022-07-23T10:07:22;22.30;99.90
52451;DHT22;38366;53.176;6.540;2022-07-23T10:09:50;22.10;99.90
52451;DHT22;38366;53.176;6.540;2022-07-23T10:12:18;22.00;99.90
52451;DHT22;38366;53.176;6.540;2022-07-23T10:14:49;22.00;99.90
52451;DHT22;38366;53.176;6.540;2022-07-23T10:17:15;22.20;99.90
52451;DHT22;38366;53.176;6.540;2022-07-23T10:19:41;22.20;99.90
52451;DHT22;38366;53.176;6.540;2022-07-23T10:22:14;22.00;99.90
52451;DHT22;38366;53.176;6.540;2022-07-23T10:28:07;21.90;99.90
52451;DHT22;38366;53.176;6.540;2022-07-23T10:39:30;21.90;99.90
52451;DHT22;38366;53.176;6.540;2022-07-23T10:42:17;21.90;99.90
52451;DHT22;38366;53.176;6.540;2022-07-23T10:44:44;22.00;99.90
52451;DHT22;38366;53.176;6.540;2022-07-23T10:47:13;22.10;99.90
52451;DHT22;38366;53.176;6.540;2022-07-23T10:50:20;22.40;99.90
52451;DHT22;38366;53.176;6.540;2022-07-23T10:53:16;22.60;99.90
52451;DHT22;38366;53.176;6.540;2022-07-23T10:55:51;22.50;99.90
52451;DHT22;38366;53.176;6.540;2022-07-23T10:58:18;22.30;99.90
52451;DHT22;38366;53.176;6.540;2022-07-23T11:00:44;22.20;99.90
52451;DHT22;38366;53.176;6.540;2022-07-23T11:06:08;22.00;99.90
52451;DHT22;38366;53.176;6.540;2022-07-23T11:08:34;22.00;99.90
52451;DHT22;38366;53.176;6.540;2022-07-23T11:13:31;21.80;99.90
52451;DHT22;38366;53.176;6.540;2022-07-23T11:32:24;21.30;99.90
52451;DHT22;38366;53.176;6.540;2022-07-23T11:34:52;21.20;99.90
52451;DHT22;38366;53.176;6.540;2022-07-23T11:37:36;21.30;99.90
52451;DHT22;38366;53.176;6.540;2022-07-23T11:40:08;21.40;99.90
52451;DHT22;38366;53.176;6.540;2022-07-23T11:42:39;21.70;99.90
52451;DHT22;38366;53.176;6.540;2022-07-23T11:45:15;22.20;99.90
52451;DHT22;38366;53.176;6.540;2022-07-23T11:47:41;22.30;99.90
52451;DHT22;38366;53.176;6.540;2022-07-23T11:50:07;22.60;99.90
52451;DHT22;38366;53.176;6.540;2022-07-23T11:52:33;22.80;99.90
52451;DHT22;38366;53.176;6.540;2022-07-23T11:55:07;22.90;99.90
52451;DHT22;38366;53.176;6.540;2022-07-23T11:57:35;22.90;99.90
52451;DHT22;38366;53.176;6.540;2022-07-23T12:00:08;22.80;99.90
52451;DHT22;38366;53.176;6.540;2022-07-23T12:02:36;22.80;99.90
52451;DHT22;38366;53.176;6.540;2022-07-23T12:05:02;23.20;99.90
52451;DHT22;38366;53.176;6.540;2022-07-23T12:09:55;23.90;99.90
52451;DHT22;38366;53.176;6.540;2022-07-23T12:12:21;24.10;99.90
52451;DHT22;38366;53.176;6.540;2022-07-23T12:17:16;24.50;99.90
52451;DHT22;38366;53.176;6.540;2022-07-23T12:19:42;24.50;99.90
52451;DHT22;38366;53.176;6.540;2022-07-23T12:22:08;24.60;99.90
52451;DHT22;38366;53.176;6.540;2022-07-23T12:27:21;25.10;99.30
52451;DHT22;38366;53.176;6.540;2022-07-23T12:29:47;24.90;98.90
52451;DHT22;38366;53.176;6.540;2022-07-23T12:32:21;25.00;99.10
52451;DHT22;38366;53.176;6.540;2022-07-23T12:35:05;25.00;98.80
52451;DHT22;38366;53.176;6.540;2022-07-23T12:37:39;25.20;99.30
52451;DHT22;38366;53.176;6.540;2022-07-23T12:40:30;25.50;98.40
52451;DHT22;38366;53.176;6.540;2022-07-23T12:42:59;25.70;99.20
52451;DHT22;38366;53.176;6.540;2022-07-23T12:45:26;25.40;98.80
52451;DHT22;38366;53.176;6.540;2022-07-23T12:47:57;25.20;98.60
52451;DHT22;38366;53.176;6.540;2022-07-23T12:50:41;25.30;99.40
52451;DHT22;38366;53.176;6.540;2022-07-23T12:53:16;25.70;99.30
52451;DHT22;38366;53.176;6.540;2022-07-23T12:55:43;25.80;98.50
52451;DHT22;38366;53.176;6.540;2022-07-23T12:58:20;26.00;98.40
52451;DHT22;38366;53.176;6.540;2022-07-23T13:01:00;26.00;98.30
52451;DHT22;38366;53.176;6.540;2022-07-23T13:03:35;25.90;97.50
52451;DHT22;38366;53.176;6.540;2022-07-23T13:06:03;25.90;98.40
52451;DHT22;38366;53.176;6.540;2022-07-23T13:08:30;26.00;97.30
52451;DHT22;38366;53.176;6.540;2022-07-23T13:10:57;26.10;98.10
52451;DHT22;38366;53.176;6.540;2022-07-23T13:13:24;26.40;97.50
52451;DHT22;38366;53.176;6.540;2022-07-23T13:15:51;26.70;98.70
52451;DHT22;38366;53.176;6.540;2022-07-23T13:18:17;26.70;97.10
52451;DHT22;38366;53.176;6.540;2022-07-23T13:20:44;26.80;97.50
52451;DHT22;38366;53.176;6.540;2022-07-23T13:23:10;26.80;96.50
52451;DHT22;38366;53.176;6.540;2022-07-23T13:25:35;26.90;97.30
52451;DHT22;38366;53.176;6.540;2022-07-23T13:28:01;27.00;97.20
52451;DHT22;38366;53.176;6.540;2022-07-23T13:30:27;27.10;96.90
52451;DHT22;38366;53.176;6.540;2022-07-23T13:32:53;27.30;97.00
52451;DHT22;38366;53.176;6.540;2022-07-23T13:35:18;27.30;96.40
52451;DHT22;38366;53.176;6.540;2022-07-23T13:37:44;27.70;96.70
52451;DHT22;38366;53.176;6.540;2022-07-23T13:40:10;28.00;96.10
52451;DHT22;38366;53.176;6.540;2022-07-23T13:42:37;27.70;95.90
52451;DHT22;38366;53.176;6.540;2022-07-23T13:45:04;27.60;96.50
52451;DHT22;38366;53.176;6.540;2022-07-23T13:47:30;27.80;96.50
52451;DHT22;38366;53.176;6.540;2022-07-23T13:49:56;28.00;96.00
52451;DHT22;38366;53.176;6.540;2022-07-23T13:52:22;27.70;95.80
52451;DHT22;38366;53.176;6.540;2022-07-23T13:54:48;27.30;95.80
52451;DHT22;38366;53.176;6.540;2022-07-23T13:57:14;27.00;95.70
52451;DHT22;38366;53.176;6.540;2022-07-23T13:59:39;26.50;96.20
52451;DHT22;38366;53.176;6.540;2022-07-23T14:02:05;26.30;96.10
52451;DHT22;38366;53.176;6.540;2022-07-23T14:04:32;26.30;96.40
52451;DHT22;38366;53.176;6.540;2022-07-23T14:06:57;26.40;96.70
52451;DHT22;38366;53.176;6.540;2022-07-23T14:09:23;26.30;96.40
52451;DHT22;38366;53.176;6.540;2022-07-23T14:11:49;26.30;97.20
52451;DHT22;38366;53.176;6.540;2022-07-23T14:14:17;26.20;96.70
52451;DHT22;38366;53.176;6.540;2022-07-23T14:16:43;26.00;97.00
52451;DHT22;38366;53.176;6.540;2022-07-23T14:19:09;26.00;96.80
52451;DHT22;38366;53.176;6.540;2022-07-23T14:21:34;25.90;97.00
52451;DHT22;38366;53.176;6.540;2022-07-23T14:24:00;25.90;97.50
52451;DHT22;38366;53.176;6.540;2022-07-23T14:26:26;26.00;96.60
52451;DHT22;38366;53.176;6.540;2022-07-23T14:28:52;26.10;97.50
52451;DHT22;38366;53.176;6.540;2022-07-23T14:31:18;25.90;97.00
52451;DHT22;38366;53.176;6.540;2022-07-23T14:33:43;25.90;97.10
52451;DHT22;38366;53.176;6.540;2022-07-23T14:36:09;25.90;96.50
52451;DHT22;38366;53.176;6.540;2022-07-23T14:38:35;25.80;97.10
52451;DHT22;38366;53.176;6.540;2022-07-23T14:41:00;25.90;96.80
52451;DHT22;38366;53.176;6.540;2022-07-23T14:43:26;26.00;97.00
52451;DHT22;38366;53.176;6.540;2022-07-23T14:45:52;25.90;97.20
52451;DHT22;38366;53.176;6.540;2022-07-23T14:48:18;25.60;97.30
52451;DHT22;38366;53.176;6.540;2022-07-23T14:50:43;25.50;97.10
52451;DHT22;38366;53.176;6.540;2022-07-23T14:53:09;25.40;96.90
52451;DHT22;38366;53.176;6.540;2022-07-23T14:55:35;25.40;97.70
52451;DHT22;38366;53.176;6.540;2022-07-23T14:58:00;25.30;97.20
52451;DHT22;38366;53.176;6.540;2022-07-23T15:00:26;25.40;97.60
52451;DHT22;38366;53.176;6.540;2022-07-23T15:02:53;25.50;97.60
52451;DHT22;38366;53.176;6.540;2022-07-23T15:05:19;25.50;97.30
52451;DHT22;38366;53.176;6.540;2022-07-23T15:07:45;25.50;97.30
52451;DHT22;38366;53.176;6.540;2022-07-23T15:10:11;25.50;97.30
52451;DHT22;38366;53.176;6.540;2022-07-23T15:12:37;25.60;97.50
52451;DHT22;38366;53.176;6.540;2022-07-23T15:15:04;25.50;97.20
52451;DHT22;38366;53.176;6.540;2022-07-23T15:17:30;25.20;97.80
52451;DHT22;38366;53.176;6.540;2022-07-23T15:19:55;25.20;97.50
52451;DHT22;38366;53.176;6.540;2022-07-23T15:22:21;25.10;97.50
52451;DHT22;38366;53.176;6.540;2022-07-23T15:24:46;24.90;97.30
52451;DHT22;38366;53.176;6.540;2022-07-23T15:27:12;24.90;97.70
52451;DHT22;38366;53.176;6.540;2022-07-23T15:29:38;24.80;97.80
52451;DHT22;38366;53.176;6.540;2022-07-23T15:32:04;24.70;98.10
52451;DHT22;38366;53.176;6.540;2022-07-23T15:34:30;24.70;98.00
52451;DHT22;38366;53.176;6.540;2022-07-23T15:37:00;24.70;97.60
52451;DHT22;38366;53.176;6.540;2022-07-23T15:39:26;24.80;98.10
52451;DHT22;38366;53.176;6.540;2022-07-23T15:41:51;24.80;97.70
52451;DHT22;38366;53.176;6.540;2022-07-23T15:44:17;24.70;97.80
52451;DHT22;38366;53.176;6.540;2022-07-23T15:46:43;24.60;97.70
52451;DHT22;38366;53.176;6.540;2022-07-23T15:49:08;24.50;97.80
52451;DHT22;38366;53.176;6.540;2022-07-23T15:51:34;24.40;97.80
52451;DHT22;38366;53.176;6.540;2022-07-23T15:53:59;24.30;97.90
52451;DHT22;38366;53.176;6.540;2022-07-23T15:56:25;24.30;98.00
52451;DHT22;38366;53.176;6.540;2022-07-23T15:58:51;24.40;98.30
52451;DHT22;38366;53.176;6.540;2022-07-23T16:01:16;24.40;98.20
52451;DHT22;38366;53.176;6.540;2022-07-23T16:03:42;24.40;98.20
52451;DHT22;38366;53.176;6.540;2022-07-23T16:06:08;24.40;98.30
52451;DHT22;38366;53.176;6.540;2022-07-23T16:08:34;24.30;97.90
52451;DHT22;38366;53.176;6.540;2022-07-23T16:11:00;24.50;98.60
52451;DHT22;38366;53.176;6.540;2022-07-23T16:13:25;24.60;98.30
52451;DHT22;38366;53.176;6.540;2022-07-23T16:15:51;24.60;97.70
52451;DHT22;38366;53.176;6.540;2022-07-23T16:18:20;24.50;97.90